Time;durP1;ratioP1;P1;durP2;ratioP2;P2;SDS_P1;SDS_P2;PMS_P1;PMS_P2;Temp;Humidity;BMP_temperature;BMP_pressure;BME280_temperature;BME280_humidity;BME280_pressure;Samples;Min_cycle;Max_cycle;Signal;HPM_P1;HPM_P2
2022/08/19 00:01:36;;;;;;;15.48;11.98;;;22.20;62.70;;;;;;5022625;28;20102;-73
2022/08/19 00:04:03;;;;;;;16.15;12.73;;;22.20;62.80;;;;;;5024213;28;20108;-75
2022/08/19 00:06:29;;;;;;;17.77;12.20;;;22.20;62.80;;;;;;5006604;28;20061;-75
2022/08/19 00:08:55;;;;;;;14.85;10.85;;;22.10;63.00;;;;;;5008179;28;20052;-74
2022/08/19 00:11:20;;;;;;;14.55;11.55;;;22.10;62.90;;;;;;5019801;28;20126;-73
2022/08/19 00:13:48;;;;;;;15.27;10.60;;;22.10;62.90;;;;;;5004681;28;20037;-72
2022/08/19 00:16:14;;;;;;;16.90;13.20;;;22.10;63.00;;;;;;5005684;28;20153;-75
2022/08/19 00:18:39;;;;;;;13.10;10.43;;;22.10;63.00;;;;;;5023769;28;20045;-74
2022/08/19 00:21:07;;;;;;;12.95;10.30;;;22.10;63.20;;;;;;5006680;28;20534;-73
2022/08/19 00:23:34;;;;;;;15.30;10.77;;;22.10;63.10;;;;;;5002684;28;20112;-74
2022/08/19 00:26:00;;;;;;;16.45;12.55;;;22.00;63.10;;;;;;5004827;28;20032;-73
2022/08/19 00:28:25;;;;;;;13.88;10.63;;;22.00;63.10;;;;;;5003989;28;20033;-75
2022/08/19 00:30:52;;;;;;;17.23;11.38;;;22.00;63.10;;;;;;5021189;28;20033;-74
2022/08/19 00:33:18;;;;;;;16.40;12.02;;;22.00;63.10;;;;;;5023356;28;20036;-74
2022/08/19 00:35:44;;;;;;;17.35;12.52;;;22.00;63.10;;;;;;5005323;28;20040;-74
2022/08/19 00:38:09;;;;;;;15.02;11.10;;;22.00;63.30;;;;;;5022266;28;20029;-73
2022/08/19 00:40:35;;;;;;;14.23;11.88;;;22.00;63.40;;;;;;5018766;28;20040;-74
2022/08/19 00:43:00;;;;;;;15.90;11.45;;;21.90;63.30;;;;;;5038026;28;20037;-74
2022/08/19 00:45:27;;;;;;;14.52;11.45;;;21.90;63.40;;;;;;5004774;28;20036;-74
2022/08/19 00:47:53;;;;;;;14.93;10.27;;;21.90;63.50;;;;;;5038938;28;20036;-74
2022/08/19 00:50:19;;;;;;;13.77;10.48;;;21.90;63.50;;;;;;5006612;28;20094;-73
2022/08/19 00:52:47;;;;;;;19.30;13.10;;;21.90;63.40;;;;;;5003644;28;20033;-74
2022/08/19 00:55:19;;;;;;;17.80;11.70;;;21.80;63.40;;;;;;4990133;28;20429;-73
2022/08/19 00:57:48;;;;;;;15.60;10.52;;;21.80;63.60;;;;;;5019188;28;20040;-74
2022/08/19 01:00:15;;;;;;;15.70;10.95;;;21.80;63.60;;;;;;5005421;28;20040;-73
2022/08/19 01:02:41;;;;;;;17.98;11.82;;;21.80;63.70;;;;;;5019497;28;20559;-74
2022/08/19 01:05:09;;;;;;;13.38;11.05;;;21.70;63.80;;;;;;5022429;28;20038;-74
2022/08/19 01:07:35;;;;;;;14.52;12.52;;;21.70;64.00;;;;;;5023938;28;20029;-74
2022/08/19 01:10:01;;;;;;;16.48;12.13;;;21.70;64.20;;;;;;5020864;28;20074;-74
2022/08/19 01:12:26;;;;;;;14.52;11.10;;;21.60;64.40;;;;;;5022652;28;20041;-74
2022/08/19 01:14:52;;;;;;;16.23;11.95;;;21.60;64.40;;;;;;5020753;28;20022;-73
2022/08/19 01:17:17;;;;;;;18.70;12.55;;;21.60;64.40;;;;;;5023241;28;20747;-73
2022/08/19 01:19:43;;;;;;;17.25;12.10;;;21.50;64.70;;;;;;5003376;28;20041;-74
2022/08/19 01:22:23;;;;;;;14.73;11.02;;;21.50;64.80;;;;;;5023626;28;20052;-75
2022/08/19 01:24:48;;;;;;;13.75;10.50;;;21.50;65.40;;;;;;5016470;28;20044;-73
2022/08/19 01:27:14;;;;;;;13.13;10.38;;;21.50;65.20;;;;;;5021698;28;20037;-75
2022/08/19 01:29:41;;;;;;;11.75;9.63;;;21.40;65.00;;;;;;5020092;28;20048;-74
2022/08/19 01:32:08;;;;;;;15.93;11.52;;;21.40;64.90;;;;;;5003484;28;20041;-73
2022/08/19 01:34:34;;;;;;;15.85;11.02;;;21.40;65.00;;;;;;5004744;28;20040;-74
2022/08/19 01:37:01;;;;;;;18.05;12.48;;;21.30;65.10;;;;;;5020112;28;20036;-75
2022/08/19 01:39:30;;;;;;;15.82;12.13;;;21.30;66.20;;;;;;5022709;28;20035;-75
2022/08/19 01:41:56;;;;;;;16.10;11.95;;;21.30;65.70;;;;;;4991270;28;20040;-74
2022/08/19 01:44:23;;;;;;;16.50;12.40;;;21.20;65.80;;;;;;4986479;28;20041;-73
2022/08/19 01:46:49;;;;;;;16.58;12.50;;;21.20;66.00;;;;;;5019931;28;20025;-73
2022/08/19 01:49:16;;;;;;;19.70;13.40;;;21.20;66.10;;;;;;4988626;28;20701;-73
2022/08/19 01:51:41;;;;;;;18.77;11.57;;;21.20;66.30;;;;;;5021810;28;20037;-73
2022/08/19 01:54:10;;;;;;;14.73;10.98;;;21.10;66.40;;;;;;5023346;28;20748;-75
2022/08/19 01:56:35;;;;;;;12.45;9.75;;;21.10;66.50;;;;;;5022994;28;20049;-73
2022/08/19 01:59:03;;;;;;;13.57;10.20;;;21.10;66.40;;;;;;5041595;28;20052;-73
2022/08/19 02:01:31;;;;;;;15.57;10.18;;;21.10;66.40;;;;;;4991267;28;20041;-74
2022/08/19 02:03:58;;;;;;;11.70;9.15;;;21.10;66.40;;;;;;4993427;28;20045;-75
2022/08/19 02:06:23;;;;;;;14.27;11.57;;;21.10;66.20;;;;;;5005837;28;20057;-73
2022/08/19 02:08:49;;;;;;;12.13;9.55;;;21.10;66.30;;;;;;4992978;28;20059;-73
2022/08/19 02:11:22;;;;;;;13.57;10.38;;;21.10;66.40;;;;;;5022690;28;20052;-73
2022/08/19 02:13:49;;;;;;;18.63;11.50;;;21.10;66.50;;;;;;5025214;28;20037;-74
2022/08/19 02:16:16;;;;;;;14.70;11.57;;;21.10;66.50;;;;;;5026664;28;20563;-74
2022/08/19 02:18:41;;;;;;;13.52;9.52;;;21.10;66.70;;;;;;5023037;28;20044;-74
2022/08/19 02:21:07;;;;;;;14.45;10.80;;;21.10;66.70;;;;;;5024028;28;20502;-73
2022/08/19 02:23:32;;;;;;;12.68;9.70;;;21.00;66.60;;;;;;5021910;28;20090;-74
2022/08/19 02:25:58;;;;;;;12.63;10.05;;;21.00;66.60;;;;;;5008303;28;20037;-74
2022/08/19 02:28:23;;;;;;;15.88;10.35;;;21.10;66.70;;;;;;5024792;28;20108;-73
2022/08/19 02:30:49;;;;;;;15.52;10.55;;;21.10;66.60;;;;;;5041502;28;20603;-73
2022/08/19 02:33:14;;;;;;;12.73;10.20;;;21.10;66.70;;;;;;5038325;28;20033;-74
2022/08/19 02:35:46;;;;;;;14.02;10.15;;;21.10;66.70;;;;;;5024174;28;20659;-72
2022/08/19 02:38:27;;;;;;;13.43;10.45;;;21.10;67.00;;;;;;5028434;28;20037;-75
2022/08/19 02:40:58;;;;;;;16.80;10.80;;;21.00;67.00;;;;;;5020284;28;20048;-73
2022/08/19 02:43:24;;;;;;;14.55;10.88;;;21.00;67.00;;;;;;5019600;28;20040;-73
2022/08/19 02:45:50;;;;;;;11.68;9.15;;;21.00;67.00;;;;;;5005780;28;20037;-73
2022/08/19 02:48:17;;;;;;;14.50;11.30;;;21.00;67.20;;;;;;5024565;28;20356;-73
2022/08/19 02:50:43;;;;;;;11.02;9.20;;;21.00;67.10;;;;;;5038906;28;20041;-74
2022/08/19 02:53:08;;;;;;;11.68;9.50;;;21.00;67.30;;;;;;5022602;28;20033;-74
2022/08/19 02:55:34;;;;;;;15.07;11.30;;;21.00;67.20;;;;;;5008813;28;20661;-72
2022/08/19 02:58:00;;;;;;;12.38;9.75;;;20.90;68.00;;;;;;5021756;28;20506;-74
2022/08/19 03:00:26;;;;;;;10.75;8.63;;;21.00;67.40;;;;;;5036933;28;20497;-74
2022/08/19 03:02:52;;;;;;;13.57;10.65;;;21.00;67.10;;;;;;5024078;28;20461;-74
2022/08/19 03:05:17;;;;;;;14.23;11.18;;;21.00;67.00;;;;;;4989536;28;20025;-73
2022/08/19 03:07:43;;;;;;;13.32;10.07;;;21.00;67.20;;;;;;5023782;28;20045;-73
2022/08/19 03:10:08;;;;;;;13.43;10.25;;;21.00;67.40;;;;;;5039659;28;21039;-74
2022/08/19 03:12:37;;;;;;;12.85;10.35;;;21.00;67.50;;;;;;5023198;28;20334;-73
2022/08/19 03:15:05;;;;;;;12.70;9.30;;;21.00;67.70;;;;;;5022460;28;20087;-74
2022/08/19 03:17:30;;;;;;;17.15;11.45;;;21.00;67.50;;;;;;5006779;28;20064;-73
2022/08/19 03:19:56;;;;;;;15.13;10.65;;;20.90;67.50;;;;;;5021453;28;20596;-72
2022/08/19 03:22:21;;;;;;;14.82;10.50;;;21.00;67.80;;;;;;5007469;28;20044;-73
2022/08/19 03:24:47;;;;;;;11.60;8.48;;;20.90;67.80;;;;;;5041098;28;20038;-73
2022/08/19 03:27:13;;;;;;;11.57;9.48;;;21.00;67.90;;;;;;5039465;28;20040;-73
2022/08/19 03:29:39;;;;;;;15.00;10.60;;;21.00;67.60;;;;;;4991357;28;20056;-74
2022/08/19 03:32:05;;;;;;;13.50;10.18;;;20.90;67.50;;;;;;5006221;28;20118;-75
2022/08/19 03:34:31;;;;;;;13.13;10.63;;;21.00;67.80;;;;;;5023400;28;20123;-74
2022/08/19 03:37:00;;;;;;;15.23;10.20;;;20.90;67.90;;;;;;5024036;28;20136;-74
2022/08/19 03:39:26;;;;;;;14.57;10.82;;;20.90;68.10;;;;;;5026216;28;20040;-74
2022/08/19 03:41:52;;;;;;;10.02;8.80;;;20.90;68.10;;;;;;5008947;28;20086;-73
2022/08/19 03:44:20;;;;;;;13.88;10.05;;;20.90;68.20;;;;;;5006850;28;20514;-73
2022/08/19 03:46:53;;;;;;;13.57;8.93;;;20.90;68.10;;;;;;4992603;28;20097;-73
2022/08/19 03:49:19;;;;;;;13.90;10.45;;;20.90;68.20;;;;;;5004940;28;20044;-74
2022/08/19 03:51:45;;;;;;;11.30;8.20;;;20.90;68.10;;;;;;5038106;28;20029;-74
2022/08/19 03:54:12;;;;;;;11.32;9.43;;;20.90;68.20;;;;;;5005901;28;20547;-73
2022/08/19 03:56:39;;;;;;;15.40;10.80;;;20.90;68.10;;;;;;5022748;28;20048;-73
2022/08/19 03:59:05;;;;;;;10.68;9.02;;;20.90;68.40;;;;;;5020697;28;20037;-73
2022/08/19 04:01:31;;;;;;;11.82;8.55;;;20.90;68.30;;;;;;5021588;28;20486;-72
2022/08/19 04:03:57;;;;;;;14.32;10.90;;;20.90;68.10;;;;;;5019461;28;20041;-73
2022/08/19 04:06:26;;;;;;;14.48;10.15;;;20.90;68.10;;;;;;5021725;28;20044;-72
2022/08/19 04:08:53;;;;;;;14.75;9.77;;;20.90;68.30;;;;;;5004669;28;20123;-72
2022/08/19 04:11:21;;;;;;;10.32;8.13;;;20.90;68.40;;;;;;5020698;28;20152;-73
2022/08/19 04:13:47;;;;;;;11.27;9.05;;;20.90;68.40;;;;;;5038586;28;20032;-73
2022/08/19 04:16:12;;;;;;;11.88;9.05;;;20.90;68.30;;;;;;4990459;28;20151;-72
2022/08/19 04:18:38;;;;;;;12.57;9.68;;;20.90;68.40;;;;;;4988020;28;20109;-74
2022/08/19 04:21:04;;;;;;;13.07;9.82;;;20.90;68.60;;;;;;5020535;28;20102;-73
2022/08/19 04:23:30;;;;;;;16.98;10.57;;;20.90;68.70;;;;;;5021246;28;20473;-72
2022/08/19 04:25:55;;;;;;;11.88;9.07;;;20.80;68.70;;;;;;5005037;28;20026;-72
2022/08/19 04:28:21;;;;;;;11.63;9.57;;;20.80;68.70;;;;;;5022285;28;20636;-74
2022/08/19 04:30:51;;;;;;;11.40;9.05;;;20.80;68.60;;;;;;5004983;28;20029;-73
2022/08/19 04:33:20;;;;;;;10.93;8.50;;;20.80;68.70;;;;;;5018451;28;20048;-72
2022/08/19 04:35:48;;;;;;;15.27;9.73;;;20.80;68.60;;;;;;5002241;28;20045;-72
2022/08/19 04:38:14;;;;;;;14.57;8.70;;;20.80;68.70;;;;;;5007329;28;20091;-73
2022/08/19 04:43:25;;;;;;;14.38;9.68;;;20.70;68.70;;;;;;5025482;28;20079;-72
2022/08/19 04:45:51;;;;;;;15.30;10.70;;;20.70;68.90;;;;;;5005297;28;20033;-72
2022/08/19 04:48:17;;;;;;;13.68;9.43;;;20.70;69.00;;;;;;5020653;28;20346;-72
2022/08/19 04:50:43;;;;;;;14.68;8.90;;;20.60;69.20;;;;;;5018708;28;20036;-74
2022/08/19 04:53:09;;;;;;;12.85;9.18;;;20.60;69.10;;;;;;5010269;28;20041;-72
2022/08/19 04:55:35;;;;;;;11.95;8.90;;;20.60;69.10;;;;;;5021345;28;20179;-72
2022/08/19 04:58:02;;;;;;;11.57;9.88;;;20.60;70.10;;;;;;5024381;28;20041;-72
2022/08/19 05:00:27;;;;;;;9.07;7.60;;;20.60;69.40;;;;;;5021196;28;20043;-72
2022/08/19 05:02:53;;;;;;;10.55;8.70;;;20.60;69.30;;;;;;5021424;28;20029;-73
2022/08/19 05:05:19;;;;;;;9.30;7.70;;;20.60;69.20;;;;;;5003895;28;20025;-73
2022/08/19 05:07:45;;;;;;;13.20;9.40;;;20.60;69.10;;;;;;5017106;28;20029;-74
2022/08/19 05:10:11;;;;;;;11.70;8.85;;;20.60;69.10;;;;;;5022039;28;20490;-72
2022/08/19 05:12:37;;;;;;;12.52;9.40;;;20.60;69.10;;;;;;5003800;28;20637;-74
2022/08/19 05:15:10;;;;;;;13.68;9.13;;;20.70;69.20;;;;;;5019003;28;20033;-73
2022/08/19 05:17:36;;;;;;;9.95;8.55;;;20.70;69.40;;;;;;5036398;28;20059;-73
2022/08/19 05:22:47;;;;;;;10.07;8.20;;;20.70;69.00;;;;;;5022721;28;20060;-72
2022/08/19 05:25:18;;;;;;;12.57;9.65;;;20.70;69.00;;;;;;5038042;28;20132;-74
2022/08/19 05:27:43;;;;;;;16.07;10.67;;;20.80;69.20;;;;;;5008033;28;20045;-74
2022/08/19 05:30:10;;;;;;;12.77;10.25;;;20.70;69.20;;;;;;5026973;28;20286;-71
2022/08/19 05:32:35;;;;;;;10.48;8.25;;;20.80;69.50;;;;;;5025070;28;20518;-72
2022/08/19 05:35:01;;;;;;;11.43;8.05;;;20.80;69.50;;;;;;5007764;28;20041;-70
2022/08/19 05:37:27;;;;;;;15.85;9.35;;;20.80;69.20;;;;;;5008490;28;20564;-71
2022/08/19 05:39:54;;;;;;;12.38;8.70;;;20.90;69.40;;;;;;5026467;28;20148;-71
2022/08/19 05:42:20;;;;;;;10.35;8.70;;;20.90;69.00;;;;;;5021771;28;20037;-71
2022/08/19 05:44:46;;;;;;;13.43;9.70;;;20.90;69.10;;;;;;5004825;28;20044;-72
2022/08/19 05:47:13;;;;;;;13.18;10.05;;;20.90;69.10;;;;;;5025110;28;20033;-71
2022/08/19 05:49:38;;;;;;;9.07;7.60;;;21.00;69.30;;;;;;5009647;28;20033;-72
2022/08/19 05:52:05;;;;;;;9.45;7.82;;;21.00;69.30;;;;;;5024685;28;20037;-71
2022/08/19 05:54:31;;;;;;;20.20;11.07;;;21.00;68.90;;;;;;4990900;28;20056;-73
2022/08/19 05:56:56;;;;;;;15.48;11.30;;;21.10;68.80;;;;;;5027067;28;20051;-72
2022/08/19 05:59:23;;;;;;;14.23;11.30;;;21.10;69.10;;;;;;5026049;28;20037;-71
2022/08/19 06:01:50;;;;;;;14.10;10.15;;;21.10;69.30;;;;;;5010042;28;20032;-71
2022/08/19 06:04:17;;;;;;;14.48;10.00;;;21.10;69.60;;;;;;5025378;28;20162;-71
2022/08/19 06:06:43;;;;;;;11.65;9.60;;;21.10;69.40;;;;;;5011893;28;20179;-72
2022/08/19 06:09:10;;;;;;;12.30;10.00;;;21.10;69.60;;;;;;5025069;28;20136;-71
2022/08/19 06:11:44;;;;;;;16.05;10.85;;;21.20;69.50;;;;;;5024091;28;20041;-71
2022/08/19 06:14:11;;;;;;;10.50;7.85;;;21.20;69.60;;;;;;5023929;28;20041;-71
2022/08/19 06:16:38;;;;;;;10.00;7.97;;;21.20;69.40;;;;;;5020307;28;20036;-71
2022/08/19 06:19:06;;;;;;;14.70;10.65;;;21.30;69.20;;;;;;5007685;28;20060;-72
2022/08/19 06:21:37;;;;;;;13.32;10.45;;;21.30;69.00;;;;;;5020300;28;20441;-72
2022/08/19 06:24:04;;;;;;;12.25;8.23;;;21.40;69.20;;;;;;5041401;28;20090;-72
2022/08/19 06:26:30;;;;;;;12.98;9.25;;;21.40;69.10;;;;;;5022405;28;20032;-72
2022/08/19 06:28:55;;;;;;;18.73;10.88;;;21.40;68.70;;;;;;5025257;28;20029;-72
2022/08/19 06:31:24;;;;;;;12.05;9.27;;;21.50;68.90;;;;;;5007706;28;20064;-72
2022/08/19 06:33:49;;;;;;;10.95;8.23;;;21.50;68.90;;;;;;5026927;28;20036;-73
2022/08/19 06:36:27;;;;;;;11.73;9.00;;;21.60;68.80;;;;;;5006076;28;20041;-72
2022/08/19 06:38:53;;;;;;;13.23;9.98;;;21.60;68.60;;;;;;5022052;28;20056;-72
2022/08/19 06:41:19;;;;;;;9.88;8.00;;;21.60;68.40;;;;;;5021854;28;20072;-72
2022/08/19 06:43:44;;;;;;;14.43;10.52;;;21.70;68.40;;;;;;4990712;28;20506;-72
2022/08/19 06:46:14;;;;;;;10.95;9.20;;;21.70;68.30;;;;;;5023433;28;20102;-73
2022/08/19 06:48:39;;;;;;;14.18;10.35;;;21.80;68.50;;;;;;5008097;28;20140;-73
2022/08/19 06:51:05;;;;;;;15.25;8.68;;;21.80;68.40;;;;;;5038613;28;20112;-72
2022/08/19 06:53:31;;;;;;;13.48;10.23;;;21.90;68.20;;;;;;5007374;28;20132;-72
2022/08/19 06:56:01;;;;;;;12.20;9.25;;;21.90;68.10;;;;;;5021401;28;20789;-72
2022/08/19 06:58:33;;;;;;;15.02;10.75;;;22.00;68.10;;;;;;5006592;28;20033;-72
2022/08/19 07:01:01;;;;;;;17.23;10.73;;;22.00;68.10;;;;;;5008663;28;20044;-71
2022/08/19 07:03:30;;;;;;;13.05;9.88;;;22.10;68.20;;;;;;5022318;28;20035;-71
2022/08/19 07:05:56;;;;;;;10.73;9.20;;;22.10;68.30;;;;;;5011100;28;20040;-72
2022/08/19 07:08:21;;;;;;;14.40;8.80;;;22.20;68.10;;;;;;5023139;28;20033;-74
2022/08/19 07:10:47;;;;;;;14.50;9.30;;;22.30;68.10;;;;;;5038280;28;20040;-74
2022/08/19 07:13:13;;;;;;;11.13;9.32;;;22.30;67.90;;;;;;5025146;28;20060;-73
2022/08/19 07:15:39;;;;;;;11.30;9.07;;;22.40;67.80;;;;;;5005348;28;20473;-73
2022/08/19 07:18:04;;;;;;;15.05;9.27;;;22.40;67.80;;;;;;5022003;28;20493;-73
2022/08/19 07:20:30;;;;;;;10.80;8.80;;;22.50;67.60;;;;;;5022000;28;20056;-74
2022/08/19 07:22:55;;;;;;;10.98;9.55;;;22.50;67.60;;;;;;5007627;28;20075;-73
2022/08/19 07:25:21;;;;;;;12.25;8.43;;;22.60;67.50;;;;;;5039166;28;20033;-73
2022/08/19 07:27:49;;;;;;;10.82;8.13;;;22.70;67.40;;;;;;5023061;28;20079;-73
2022/08/19 07:30:14;;;;;;;13.25;10.68;;;22.70;67.20;;;;;;5004993;28;20037;-73
2022/08/19 07:32:40;;;;;;;14.35;8.75;;;22.80;67.10;;;;;;5038797;28;20035;-73
2022/08/19 07:35:07;;;;;;;13.60;10.10;;;22.90;67.20;;;;;;5021783;28;20033;-73
2022/08/19 07:37:34;;;;;;;9.52;8.50;;;22.90;67.80;;;;;;5004713;28;20047;-73
2022/08/19 07:40:01;;;;;;;13.55;9.85;;;23.00;66.90;;;;;;5007374;28;20098;-72
2022/08/19 07:42:29;;;;;;;11.50;9.07;;;23.10;66.80;;;;;;5006118;28;20128;-73
2022/08/19 07:44:54;;;;;;;11.70;9.07;;;23.10;66.70;;;;;;5021158;28;20033;-74
2022/08/19 07:47:20;;;;;;;10.77;7.75;;;23.20;66.60;;;;;;5020752;28;20056;-73
2022/08/19 07:49:46;;;;;;;10.77;8.57;;;23.20;66.50;;;;;;5022169;28;20033;-73
2022/08/19 07:52:12;;;;;;;9.60;7.50;;;23.30;66.40;;;;;;5021176;28;20099;-73
2022/08/19 07:54:38;;;;;;;10.60;8.70;;;23.40;66.40;;;;;;5020441;28;20036;-74
2022/08/19 07:57:04;;;;;;;10.68;7.35;;;23.40;66.10;;;;;;5020428;28;20041;-73
2022/08/19 07:59:29;;;;;;;10.75;7.95;;;23.50;66.10;;;;;;5038680;28;20040;-74
2022/08/19 08:01:55;;;;;;;10.18;8.50;;;23.60;65.80;;;;;;5018143;28;20040;-74
2022/08/19 08:09:50;;;;;;;9.32;7.40;;;23.80;65.30;;;;;;5008991;28;20099;-74
2022/08/19 08:12:25;;;;;;;9.43;7.95;;;23.90;65.00;;;;;;5022833;28;20053;-74
2022/08/19 08:14:52;;;;;;;9.80;8.05;;;24.00;64.80;;;;;;5020367;28;20131;-74
2022/08/19 08:17:22;;;;;;;10.43;7.00;;;24.10;64.60;;;;;;5004843;28;20040;-74
2022/08/19 08:19:49;;;;;;;9.25;7.78;;;24.10;64.40;;;;;;5020766;28;20086;-72
2022/08/19 08:23:21;;;;;;;8.35;7.20;;;24.20;64.30;;;;;;5009111;28;20037;-75
2022/08/19 08:25:05;;;;;;;10.73;7.60;;;24.30;64.10;;;;;;5009367;28;20033;-74
2022/08/19 08:27:31;;;;;;;10.55;7.13;;;24.40;63.90;;;;;;5005478;28;20037;-75
2022/08/19 08:29:57;;;;;;;10.57;7.47;;;24.50;63.80;;;;;;4989846;28;20546;-74
2022/08/19 08:32:23;;;;;;;9.38;6.93;;;24.60;63.60;;;;;;5004978;28;20087;-73
2022/08/19 08:34:49;;;;;;;8.07;6.53;;;24.60;63.30;;;;;;5038608;28;20060;-74
2022/08/19 08:37:14;;;;;;;9.00;6.07;;;24.60;63.10;;;;;;5021159;28;21215;-74
2022/08/19 08:39:40;;;;;;;8.18;6.47;;;24.80;63.00;;;;;;5038225;28;20443;-74
2022/08/19 08:42:18;;;;;;;10.77;5.22;;;24.80;62.80;;;;;;5015489;28;20041;-74
2022/08/19 08:44:50;;;;;;;5.97;4.90;;;24.70;62.60;;;;;;4988516;28;20048;-76
2022/08/19 08:47:17;;;;;;;7.13;4.95;;;24.70;62.40;;;;;;4993429;28;20071;-75
2022/08/19 08:50:04;;;;;;;10.48;5.25;;;24.80;62.40;;;;;;4989265;28;20039;-74
2022/08/19 08:52:41;;;;;;;10.02;4.80;;;24.80;61.70;;;;;;5036489;28;20444;-73
2022/08/19 08:55:13;;;;;;;6.63;4.35;;;24.90;61.70;;;;;;5022629;28;20040;-74
2022/08/19 08:57:51;;;;;;;4.95;4.28;;;24.80;61.70;;;;;;5018042;28;20033;-73
2022/08/19 09:00:38;;;;;;;7.45;4.20;;;24.90;61.40;;;;;;5037947;28;20044;-75
2022/08/19 09:03:09;;;;;;;7.47;4.15;;;24.90;60.90;;;;;;5019480;28;20087;-75
2022/08/19 09:06:09;;;;;;;4.88;4.38;;;25.00;61.10;;;;;;5020722;28;20131;-75
2022/08/19 09:08:44;;;;;;;5.27;4.13;;;25.00;60.80;;;;;;4984842;28;20554;-74
2022/08/19 09:11:14;;;;;;;9.50;3.85;;;25.00;60.60;;;;;;5038043;28;20102;-74
2022/08/19 09:13:45;;;;;;;4.38;3.97;;;25.10;60.50;;;;;;5022027;28;20049;-75
2022/08/19 09:16:17;;;;;;;;;;;25.10;60.30;;;;;;5038472;28;20044;-75
2022/08/19 09:18:53;;;;;;;5.25;3.80;;;25.10;60.30;;;;;;5003159;28;20562;-75
2022/08/19 09:21:22;;;;;;;4.95;3.58;;;25.10;60.10;;;;;;5037678;28;20040;-74
2022/08/19 09:23:48;;;;;;;5.18;4.10;;;25.10;59.90;;;;;;5001076;28;20033;-74
2022/08/19 09:26:15;;;;;;;4.80;3.45;;;25.20;59.70;;;;;;5006651;28;20444;-73
2022/08/19 09:28:44;;;;;;;5.05;3.50;;;25.20;59.60;;;;;;4992351;28;20059;-74
2022/08/19 09:31:13;;;;;;;6.05;4.05;;;25.20;59.40;;;;;;5037740;28;20052;-74
2022/08/19 09:33:39;;;;;;;6.50;3.85;;;25.10;59.20;;;;;;5005902;28;20029;-73
2022/08/19 09:36:06;;;;;;;6.38;3.85;;;25.10;59.10;;;;;;5020937;28;20433;-75
2022/08/19 09:38:32;;;;;;;6.30;3.35;;;25.00;58.90;;;;;;5020925;28;20040;-73
2022/08/19 09:41:04;;;;;;;2.95;2.75;;;25.00;58.90;;;;;;5019306;28;20025;-75
2022/08/19 09:43:30;;;;;;;5.63;3.60;;;24.90;58.80;;;;;;5038669;28;20249;-74
2022/08/19 09:45:56;;;;;;;4.00;3.13;;;24.90;58.80;;;;;;5020961;28;20029;-73
2022/08/19 09:48:22;;;;;;;4.10;2.75;;;25.00;58.70;;;;;;5037790;28;20556;-75
2022/08/19 09:50:47;;;;;;;3.83;2.83;;;24.90;58.50;;;;;;5021976;28;20037;-74
2022/08/19 09:53:13;;;;;;;4.43;2.90;;;25.00;58.50;;;;;;5010390;28;20049;-75
2022/08/19 09:55:42;;;;;;;3.47;2.80;;;25.00;58.40;;;;;;5037100;28;20496;-74
2022/08/19 09:58:08;;;;;;;3.20;2.90;;;25.00;58.20;;;;;;5022148;28;20033;-74
2022/08/19 10:00:33;;;;;;;6.60;3.10;;;25.00;58.10;;;;;;5034910;28;20040;-73
2022/08/19 10:02:59;;;;;;;3.72;3.00;;;24.90;58.10;;;;;;5038024;28;20029;-75
2022/08/19 10:08:09;;;;;;;5.15;3.25;;;25.00;57.90;;;;;;5011373;28;20564;-75
2022/08/19 10:10:35;;;;;;;3.97;3.00;;;25.00;57.90;;;;;;5005253;28;20048;-75
2022/08/19 10:13:01;;;;;;;4.55;3.00;;;25.00;57.70;;;;;;5004060;28;20040;-74
2022/08/19 10:15:27;;;;;;;5.65;3.38;;;25.10;57.70;;;;;;5042061;28;20024;-74
2022/08/19 10:17:52;;;;;;;3.45;3.03;;;25.10;57.60;;;;;;5041507;28;20036;-74
2022/08/19 10:20:18;;;;;;;5.85;3.10;;;25.10;57.60;;;;;;5041808;28;20060;-74
2022/08/19 10:22:43;;;;;;;6.10;2.80;;;25.20;57.50;;;;;;5006790;28;20037;-74
2022/08/19 10:25:09;;;;;;;3.38;3.08;;;25.20;57.40;;;;;;5025327;28;20045;-74
2022/08/19 10:27:35;;;;;;;6.03;2.90;;;25.30;58.00;;;;;;5023909;28;20052;-75
2022/08/19 10:30:01;;;;;;;3.53;2.83;;;25.30;57.20;;;;;;5009777;28;20060;-74
2022/08/19 10:32:27;;;;;;;4.60;3.15;;;25.30;57.10;;;;;;5025182;28;20041;-74
2022/08/19 10:34:53;;;;;;;6.72;3.00;;;25.40;57.10;;;;;;5025514;28;20021;-74
2022/08/19 10:37:19;;;;;;;3.92;2.95;;;25.40;57.00;;;;;;5006573;28;20044;-75
2022/08/19 10:39:47;;;;;;;5.22;2.80;;;25.40;56.90;;;;;;5022699;28;20056;-75
2022/08/19 10:42:13;;;;;;;4.13;3.10;;;25.40;56.90;;;;;;5009799;28;20037;-74
2022/08/19 10:44:39;;;;;;;5.95;2.90;;;25.50;56.90;;;;;;5007825;28;20029;-73
2022/08/19 10:47:05;;;;;;;2.97;2.78;;;25.50;56.80;;;;;;5024194;28;20383;-76
2022/08/19 10:49:31;;;;;;;4.18;2.90;;;25.60;56.80;;;;;;5039506;28;20551;-75
2022/08/19 10:57:30;;;;;;;5.05;3.05;;;25.80;56.40;;;;;;5023708;28;20047;-74
2022/08/19 10:59:55;;;;;;;4.25;3.05;;;25.80;56.30;;;;;;5023564;28;20036;-74
2022/08/19 11:02:22;;;;;;;6.32;2.72;;;25.80;56.20;;;;;;5023037;28;20041;-74
2022/08/19 11:04:49;;;;;;;3.88;3.03;;;25.90;56.20;;;;;;5023636;28;20314;-75
2022/08/19 11:07:15;;;;;;;3.08;2.78;;;25.90;56.10;;;;;;5011441;28;20040;-76
2022/08/19 11:09:41;;;;;;;3.60;2.90;;;25.90;56.00;;;;;;5006050;28;20378;-74
2022/08/19 11:12:07;;;;;;;2.72;2.50;;;26.00;55.90;;;;;;5022781;28;20048;-75
2022/08/19 11:14:33;;;;;;;5.55;2.95;;;26.00;55.80;;;;;;4984850;28;20068;-75
2022/08/19 11:16:59;;;;;;;5.82;3.20;;;26.10;55.80;;;;;;5038968;28;20090;-75
2022/08/19 11:19:24;;;;;;;6.93;2.67;;;26.10;55.60;;;;;;4992882;28;20041;-74
2022/08/19 11:21:51;;;;;;;3.60;3.00;;;26.10;55.60;;;;;;5040600;28;20037;-74
2022/08/19 11:24:20;;;;;;;2.70;2.50;;;26.10;55.50;;;;;;4989698;28;20116;-74
2022/08/19 11:26:46;;;;;;;3.53;2.50;;;26.20;55.40;;;;;;5040510;28;20041;-76
2022/08/19 11:29:12;;;;;;;2.92;2.63;;;26.20;55.30;;;;;;5023394;28;20438;-74
2022/08/19 11:31:39;;;;;;;2.83;2.28;;;26.30;55.20;;;;;;5006103;28;20043;-73
2022/08/19 11:34:06;;;;;;;3.30;2.28;;;26.30;55.10;;;;;;5021451;28;20048;-72
2022/08/19 11:36:33;;;;;;;2.70;2.50;;;26.40;55.00;;;;;;4984578;28;20547;-74
2022/08/19 11:38:59;;;;;;;2.55;2.13;;;26.50;55.00;;;;;;5007091;28;20128;-74
2022/08/19 11:41:25;;;;;;;3.15;2.55;;;26.60;54.90;;;;;;5002446;28;20044;-72
2022/08/19 11:43:52;;;;;;;4.15;2.10;;;26.60;54.70;;;;;;5007708;28;20120;-73
2022/08/19 11:46:18;;;;;;;4.90;2.50;;;26.70;54.60;;;;;;5038320;28;20045;-73
2022/08/19 11:48:44;;;;;;;3.10;2.47;;;26.80;54.50;;;;;;5019892;28;20048;-73
2022/08/19 11:51:14;;;;;;;3.38;2.40;;;26.90;54.30;;;;;;5008046;28;20652;-72
2022/08/19 11:53:40;;;;;;;3.17;2.40;;;27.00;54.00;;;;;;4990121;28;20398;-74
2022/08/19 11:56:06;;;;;;;2.40;2.20;;;27.00;53.90;;;;;;5006093;28;20045;-73
2022/08/19 11:58:32;;;;;;;5.03;2.28;;;27.00;53.70;;;;;;5005954;28;20413;-74
2022/08/19 12:00:57;;;;;;;3.65;2.60;;;27.00;54.20;;;;;;5021938;28;20120;-73
2022/08/19 12:03:23;;;;;;;3.97;2.50;;;27.00;53.50;;;;;;5023456;28;20591;-74
2022/08/19 12:05:49;;;;;;;4.20;2.30;;;27.00;53.40;;;;;;5023810;28;20037;-74
2022/08/19 12:08:15;;;;;;;2.30;2.10;;;27.10;53.40;;;;;;5042935;28;20039;-73
2022/08/19 12:10:42;;;;;;;5.65;2.13;;;27.10;53.30;;;;;;5021647;28;20033;-74
2022/08/19 12:13:08;;;;;;;3.03;2.72;;;27.10;53.20;;;;;;5032922;28;20043;-74
2022/08/19 12:15:37;;;;;;;2.17;1.92;;;27.10;52.90;;;;;;5020277;28;20041;-73
2022/08/19 12:18:03;;;;;;;2.03;1.63;;;27.20;52.80;;;;;;5006430;28;20601;-73
2022/08/19 12:20:28;;;;;;;2.33;1.52;;;27.20;52.70;;;;;;5009080;28;20120;-74
2022/08/19 12:22:54;;;;;;;3.63;1.55;;;27.30;52.50;;;;;;5020920;28;20700;-72
2022/08/19 12:25:20;;;;;;;1.70;1.45;;;27.20;52.30;;;;;;5038998;28;20037;-73
2022/08/19 12:27:46;;;;;;;1.85;1.60;;;27.20;52.20;;;;;;5039134;28;20505;-74
2022/08/19 12:30:12;;;;;;;2.28;1.50;;;27.20;52.10;;;;;;5037065;28;20037;-73
2022/08/19 12:32:38;;;;;;;2.65;1.70;;;27.10;51.90;;;;;;5039047;28;20095;-74
2022/08/19 12:35:04;;;;;;;3.45;1.60;;;27.10;51.70;;;;;;5018278;28;20043;-75
2022/08/19 12:37:31;;;;;;;2.20;2.00;;;27.10;51.70;;;;;;5018822;28;20124;-75
2022/08/19 12:39:57;;;;;;;5.80;1.80;;;27.20;51.70;;;;;;5035255;28;20079;-74
2022/08/19 12:42:22;;;;;;;3.03;1.92;;;27.10;51.50;;;;;;5006282;28;20624;-75
2022/08/19 12:44:48;;;;;;;1.58;1.48;;;27.20;51.50;;;;;;5004654;28;20040;-72
2022/08/19 12:47:13;;;;;;;2.20;1.60;;;27.20;51.40;;;;;;5025046;28;20045;-74
2022/08/19 12:49:39;;;;;;;2.20;1.42;;;27.30;51.40;;;;;;5022194;28;20037;-71
2022/08/19 12:52:05;;;;;;;2.85;1.55;;;27.40;51.20;;;;;;5023098;28;20664;-72
2022/08/19 12:54:31;;;;;;;2.67;1.42;;;27.50;51.10;;;;;;5021442;28;20717;-73
2022/08/19 12:56:59;;;;;;;1.40;1.30;;;27.60;50.90;;;;;;5025969;28;20044;-76